Αναφορές Αεροδρομίων

 

KSJC - San Jose, California, USA
Distance from station: ΒΑ 14km
Ενημερώθηκε: 21/07/2024 05:53
Αίθριος
Αίθριος
 Ανεμος από ΒΔ
Ανεμος: ΒΔ 15 km/h
Θερμοκρασία: 22°C
Σημείο Δρόσου: 13°C
Υγρασία: 57%
Βαρόμετρο: 1013.9 hPa
Clouds: Αίθριος
Visibility: 16 km
2024/07/21 02:53 KSJC 210253Z 31008KT 10SM CLR 22/13 A2994 RMK AO2 SLP139 T02220133 53009
KNUQ - Moffett Nas/Mtn, California, USA
Distance from station: Β 14km
Ενημερώθηκε: 21/07/2024 05:55
Αίθριος
Αίθριος
 Ανεμος από Β
Ανεμος: Β 20 km/h
Θερμοκρασία: 20°C
Σημείο Δρόσου: 14°C
Υγρασία: 69%
Βαρόμετρο: 1014.2 hPa
Clouds: Αίθριος
Visibility: 14 km
2024/07/21 02:55 KNUQ 210255Z AUTO 35011KT 9SM CLR 20/14 A2995 RMK AO2
 
KPAO - Palo Alto, California, USA
Distance from station: ΒΒΔ 23km
Ενημερώθηκε: 21/07/2024 05:47
Αίθριος
Αίθριος
 Ανεμος από ΒΒΔ
Ανεμος: ΒΒΔ 17 km/h
Θερμοκρασία: 19°C
Σημείο Δρόσου: 14°C
Υγρασία: 73%
Βαρόμετρο: 1014.2 hPa
Clouds: Αίθριος
Visibility: 16 km
2024/07/21 02:47 KPAO 210247Z 33009KT 10SM SKC 19/14 A2995
KRHV - San Jose/Reid, California, USA
Distance from station: ΑΒΑ 19km
Ενημερώθηκε: 21/07/2024 02:47
NOT Current
Αίθριος
Αίθριος
 Ανεμος από ΔΒΔ
Ανεμος: ΔΒΔ 22 km/h
Θερμοκρασία: 28°C
Heat Index: 28°C
Σημείο Δρόσου: 14°C
Υγρασία: 42%
Βαρόμετρο: 1012.9 hPa
Clouds: Αίθριος
Visibility: 16 km
2024/07/20 23:47 KRHV 202347Z 30012KT 10SM SKC 28/14 A2991
 
KOAK - Oakland, California, USA
Distance from station: ΒΒΔ 50km
Ενημερώθηκε: 21/07/2024 05:53
Few Clouds
Few Clouds
 Ανεμος από ΔΝΔ
Ανεμος: ΔΝΔ 13 km/h
Θερμοκρασία: 18°C
Σημείο Δρόσου: 14°C
Υγρασία: 78%
Βαρόμετρο: 1014.2 hPa
Clouds: Few Clouds
Visibility: 14 km
Cloud details: Few Clouds 274 m
2024/07/21 02:53 KOAK 210253Z 25007KT 9SM FEW009 18/14 A2995 RMK AO2 SLP140 T01780139 53005
KSQL - San Carlos Airpo, California, USA
Distance from station: ΒΔ 34km
Ενημερώθηκε: 21/07/2024 05:47
Αίθριος
Αίθριος
 Ανεμος από Δ
Ανεμος: Δ 11 km/h
Θερμοκρασία: 19°C
Σημείο Δρόσου: 12°C
Υγρασία: 64%
Βαρόμετρο: 1014.2 hPa
Clouds: Αίθριος
Visibility: 16 km
2024/07/21 02:47 KSQL 210247Z 26006KT 10SM CLR 19/12 A2995
 
KSFO - San Francisco, California, USA
Distance from station: ΒΔ 49km
Ενημερώθηκε: 21/07/2024 05:56
Few Clouds
Few Clouds
 Ανεμος από ΔΒΔ
Ανεμος: ΔΒΔ 30 km/h, Ριπή: 39 km/h
Θερμοκρασία: 16°C
Σημείο Δρόσου: 12°C
Υγρασία: 77%
Βαρόμετρο: 1013.9 hPa
Clouds: Few Clouds
Visibility: 16 km
Cloud details: Few Clouds 274 m
2024/07/21 02:56 KSFO 210256Z 29016G21KT 10SM FEW009 16/12 A2994 RMK AO2 PK WND 29029/0209 SLP138 T01560122 53003 $
KE16 - San Martin, California, USA
Distance from station: ΑΝΑ 43km
Ενημερώθηκε: 21/07/2024 05:55
Αίθριος
Αίθριος
 Ανεμος από ΝΑ
Ανεμος: ΝΑ 13 km/h
Θερμοκρασία: 20°C
Σημείο Δρόσου: 13°C
Υγρασία: 64%
Βαρόμετρο: 1014.6 hPa
Clouds: Αίθριος
Visibility: 14 km
2024/07/21 02:55 KE16 210255Z AUTO 13007KT 9SM CLR 20/13 A2996 RMK AO2 PWINO PNO
 
KWVI - Watsonville, California, USA
Distance from station: ΝΝΑ 44km
Ενημερώθηκε: 21/07/2024 05:53
Αίθριος
Αίθριος
 Ανεμος από ΝΝΑ
Ανεμος: ΝΝΑ 15 km/h
Θερμοκρασία: 16°C
Σημείο Δρόσου: 13°C
Υγρασία: 83%
Βαρόμετρο: 1015.6 hPa
Clouds: Αίθριος
Visibility: 16 km
2024/07/21 02:53 KWVI 210253Z AUTO 16008KT 10SM CLR 16/13 A2999 RMK AO2 SLP154 T01560128 53008
KHAF - Half Moon Bay, California, USA
Distance from station: ΔΒΔ 50km
Ενημερώθηκε: 21/07/2024 05:55
Mist, Συννεφιά
Mist, Συννεφιά
 Ανεμος από ΒΔ
Ανεμος: ΒΔ 15 km/h
Θερμοκρασία: 14°C
Σημείο Δρόσου: 14°C
Υγρασία: 100%
Βαρόμετρο: 1015.9 hPa
Περίληψη: Mist
Clouds: Συννεφιά
Visibility: 6 km
Cloud details: Συννεφιά 244 m
2024/07/21 02:55 KHAF 210255Z AUTO 32008KT 4SM BR OVC008 14/14 A3000 RMK AO2
 
KHWD - Hayward, California, USA
Distance from station: Β 44km
Ενημερώθηκε: 21/07/2024 05:54
Αίθριος
Αίθριος
 Ανεμος από ΔΒΔ
Ανεμος: ΔΒΔ 15 km/h
Θερμοκρασία: 19°C
Σημείο Δρόσου: 13°C
Υγρασία: 68%
Βαρόμετρο: 1013.9 hPa
Clouds: Αίθριος
Visibility: 16 km
2024/07/21 02:54 KHWD 210254Z 29008KT 10SM CLR 19/13 A2994 RMK AO2 SLP148 T01940133 53004
KLVK - Livermore, California, USA
Distance from station: ΒΒΑ 51km
Ενημερώθηκε: 21/07/2024 05:53
Αίθριος
Αίθριος
 Ανεμος από ΔΝΔ
Ανεμος: ΔΝΔ 15 km/h, Ριπή: 33 km/h
Θερμοκρασία: 23°C
Σημείο Δρόσου: 12°C
Υγρασία: 50%
Βαρόμετρο: 1012.5 hPa
Clouds: Αίθριος
Visibility: 16 km
2024/07/21 02:53 KLVK 210253Z 25008G18KT 10SM CLR 23/12 A2990 RMK AO2 SLP121 T02330117 53009 $